Time;durP1;ratioP1;P1;durP2;ratioP2;P2;SDS_P1;SDS_P2;PMS_P1;PMS_P2;Temp;Humidity;BMP_temperature;BMP_pressure;BME280_temperature;BME280_humidity;BME280_pressure;Samples;Min_cycle;Max_cycle;Signal;HPM_P1;HPM_P2
2022/10/18 00:01:06;;;;;;;33.17;17.08;;;;;;;;;;4919489;29;20498;-71
2022/10/18 00:03:34;;;;;;;30.55;16.90;;;;;;;;;;4919251;29;20055;-71
2022/10/18 00:06:02;;;;;;;34.42;16.73;;;;;;;;;;4919293;29;20068;-71
2022/10/18 00:08:29;;;;;;;36.47;16.52;;;;;;;;;;4919238;29;20048;-71
2022/10/18 00:10:57;;;;;;;26.85;16.20;;;;;;;;;;4919424;29;20111;-71
2022/10/18 00:13:25;;;;;;;26.65;14.68;;;;;;;;;;4919241;29;20040;-71
2022/10/18 00:15:55;;;;;;;26.30;13.85;;;;;;;;;;4919155;29;20048;-71
2022/10/18 00:18:23;;;;;;;24.65;14.00;;;;;;;;;;4919108;29;20044;-70
2022/10/18 00:20:57;;;;;;;27.10;14.07;;;;;;;;;;4919066;29;20076;-71
2022/10/18 00:23:24;;;;;;;31.45;15.00;;;;;;;;;;4918838;29;20488;-71
2022/10/18 00:26:03;;;;;;;29.92;15.50;;;;;;;;;;4919042;29;20396;-71
2022/10/18 00:28:30;;;;;;;30.02;15.82;;;;;;;;;;4918272;29;20510;-71
2022/10/18 00:31:08;;;;;;;33.17;15.77;;;;;;;;;;4918965;29;20108;-71
2022/10/18 00:33:35;;;;;;;32.20;15.05;;;;;;;;;;4918827;29;20055;-71
2022/10/18 00:36:03;;;;;;;31.30;15.82;;;;;;;;;;4918978;29;20502;-71
2022/10/18 00:38:30;;;;;;;37.22;17.65;;;;;;;;;;4918603;29;20044;-71
2022/10/18 00:40:58;;;;;;;37.92;17.73;;;;;;;;;;4917457;29;20036;-71
2022/10/18 00:43:25;;;;;;;35.13;18.83;;;;;;;;;;4918602;29;20131;-71
2022/10/18 00:45:52;;;;;;;36.63;18.65;;;;;;;;;;4918657;29;20120;-71
2022/10/18 00:48:20;;;;;;;49.35;21.80;;;;;;;;;;4917377;29;20044;-71
2022/10/18 00:50:49;;;;;;;44.63;20.65;;;;;;;;;;4918443;29;20366;-71
2022/10/18 00:53:18;;;;;;;36.92;19.05;;;;;;;;;;4918420;29;20048;-71
2022/10/18 00:55:46;;;;;;;43.47;20.23;;;;;;;;;;4918446;29;20044;-71
2022/10/18 00:58:14;;;;;;;46.72;20.65;;;;;;;;;;4918270;29;20132;-71
2022/10/18 01:00:42;;;;;;;42.63;20.70;;;;;;;;;;4918181;29;20503;-71
2022/10/18 01:03:09;;;;;;;50.45;21.40;;;;;;;;;;4918639;29;20075;-71
2022/10/18 01:05:40;;;;;;;38.92;19.30;;;;;;;;;;4918326;29;20040;-71
2022/10/18 01:08:08;;;;;;;39.35;21.63;;;;;;;;;;4918185;29;20131;-71
2022/10/18 01:10:48;;;;;;;40.00;19.42;;;;;;;;;;4918298;29;20084;-71
2022/10/18 01:13:25;;;;;;;38.88;18.88;;;;;;;;;;4918244;29;20120;-71
2022/10/18 01:15:58;;;;;;;36.30;18.80;;;;;;;;;;4918201;29;20051;-71
2022/10/18 01:18:29;;;;;;;39.17;19.73;;;;;;;;;;4918071;29;20048;-70
2022/10/18 01:21:02;;;;;;;39.25;20.13;;;;;;;;;;4917862;29;20044;-71
2022/10/18 01:23:36;;;;;;;37.70;20.45;;;;;;;;;;4917897;29;20071;-71
2022/10/18 01:26:22;;;;;;;40.55;20.80;;;;;;;;;;4917979;29;20119;-71
2022/10/18 01:28:52;;;;;;;37.55;19.42;;;;;;;;;;4917517;29;20060;-71
2022/10/18 01:31:22;;;;;;;38.78;19.20;;;;;;;;;;4917817;29;20048;-71
2022/10/18 01:33:52;;;;;;;41.72;19.90;;;;;;;;;;4917704;29;20040;-71
2022/10/18 01:36:22;;;;;;;42.80;20.88;;;;;;;;;;4916612;29;20104;-71
2022/10/18 01:38:51;;;;;;;37.97;19.02;;;;;;;;;;4917561;29;20076;-71
2022/10/18 01:41:19;;;;;;;37.60;19.48;;;;;;;;;;4916809;29;20044;-71
2022/10/18 01:43:49;;;;;;;38.00;20.63;;;;;;;;;;4916233;29;20071;-71
2022/10/18 01:46:18;;;;;;;38.70;20.08;;;;;;;;;;4917458;29;20052;-71
2022/10/18 01:48:46;;;;;;;39.75;20.48;;;;;;;;;;4917410;29;20486;-71
2022/10/18 01:51:14;;;;;;;33.28;17.98;;;;;;;;;;4917284;29;20506;-71
2022/10/18 01:53:41;;;;;;;36.28;18.88;;;;;;;;;;4917453;29;20044;-71
2022/10/18 01:56:20;;;;;;;35.08;19.23;;;;;;;;;;4917401;29;20072;-71
2022/10/18 01:58:48;;;;;;;30.25;17.08;;;;;;;;;;4917177;29;20499;-71
2022/10/18 02:01:25;;;;;;;38.13;18.17;;;;;;;;;;4915978;29;20099;-70
2022/10/18 02:03:54;;;;;;;32.85;18.13;;;;;;;;;;4917093;29;20040;-70
2022/10/18 02:06:26;;;;;;;38.10;19.65;;;;;;;;;;4917137;29;20051;-70
2022/10/18 02:08:58;;;;;;;33.47;18.65;;;;;;;;;;4917068;29;20148;-70
2022/10/18 02:11:26;;;;;;;36.72;18.42;;;;;;;;;;4917101;29;20062;-70
2022/10/18 02:13:57;;;;;;;35.08;17.85;;;;;;;;;;4917130;29;20044;-70
2022/10/18 02:16:45;;;;;;;31.63;17.42;;;;;;;;;;4917172;29;20410;-70
2022/10/18 02:19:14;;;;;;;35.30;17.70;;;;;;;;;;4917037;29;20818;-71
2022/10/18 02:21:43;;;;;;;30.63;17.48;;;;;;;;;;4916835;29;20036;-70
2022/10/18 02:24:12;;;;;;;32.05;18.08;;;;;;;;;;4916848;29;20051;-70
2022/10/18 02:26:40;;;;;;;32.60;17.33;;;;;;;;;;4916851;29;20080;-70
2022/10/18 02:29:08;;;;;;;34.47;17.95;;;;;;;;;;4916713;29;20056;-70
2022/10/18 02:31:38;;;;;;;33.97;16.67;;;;;;;;;;4916817;29;20447;-70
2022/10/18 02:34:09;;;;;;;32.80;16.92;;;;;;;;;;4916780;29;20052;-70
2022/10/18 02:36:42;;;;;;;29.83;16.77;;;;;;;;;;4916618;29;20071;-70
2022/10/18 02:39:14;;;;;;;35.38;17.63;;;;;;;;;;4916623;29;20044;-70
2022/10/18 02:41:42;;;;;;;31.90;15.90;;;;;;;;;;4916658;29;20127;-70
2022/10/18 02:44:10;;;;;;;35.58;16.33;;;;;;;;;;4916681;29;20044;-70
2022/10/18 02:46:38;;;;;;;28.40;15.98;;;;;;;;;;4916536;29;20127;-70
2022/10/18 02:49:05;;;;;;;30.08;15.98;;;;;;;;;;4916447;29;20096;-70
2022/10/18 02:51:33;;;;;;;26.42;16.40;;;;;;;;;;4916280;29;20044;-70
2022/10/18 02:54:00;;;;;;;32.10;16.30;;;;;;;;;;4916543;29;20096;-70
2022/10/18 02:56:28;;;;;;;32.58;16.23;;;;;;;;;;4916224;29;20048;-70
2022/10/18 02:58:55;;;;;;;33.10;18.17;;;;;;;;;;4916452;29;20442;-70
2022/10/18 03:01:23;;;;;;;32.15;17.92;;;;;;;;;;4916386;29;20039;-70
2022/10/18 03:03:50;;;;;;;34.25;16.70;;;;;;;;;;4915056;29;20072;-70
2022/10/18 03:06:18;;;;;;;33.63;16.17;;;;;;;;;;4916373;29;20051;-70
2022/10/18 03:08:45;;;;;;;36.50;18.52;;;;;;;;;;4914769;29;20048;-70
2022/10/18 03:11:13;;;;;;;34.65;16.63;;;;;;;;;;4916546;29;20040;-70
2022/10/18 03:13:40;;;;;;;35.33;18.15;;;;;;;;;;4914915;29;20052;-70
2022/10/18 03:16:08;;;;;;;42.00;17.70;;;;;;;;;;4916137;29;20051;-70
2022/10/18 03:18:35;;;;;;;36.38;17.65;;;;;;;;;;4916084;29;20116;-70
2022/10/18 03:21:06;;;;;;;35.20;18.08;;;;;;;;;;4916299;29;20048;-70
2022/10/18 03:23:34;;;;;;;34.58;18.38;;;;;;;;;;4916129;29;20055;-70
2022/10/18 03:26:02;;;;;;;39.22;17.50;;;;;;;;;;4914923;29;20044;-70
2022/10/18 03:28:29;;;;;;;36.67;18.45;;;;;;;;;;4915973;29;20070;-70
2022/10/18 03:31:01;;;;;;;34.85;18.45;;;;;;;;;;4915722;29;20051;-70
2022/10/18 03:33:28;;;;;;;38.60;18.35;;;;;;;;;;4915919;29;20127;-70
2022/10/18 03:35:56;;;;;;;33.40;18.10;;;;;;;;;;4915865;29;20048;-70
2022/10/18 03:38:23;;;;;;;34.03;18.20;;;;;;;;;;4930602;29;20048;-70
2022/10/18 03:40:51;;;;;;;30.80;17.70;;;;;;;;;;4914709;29;20135;-70
2022/10/18 03:43:18;;;;;;;36.60;18.27;;;;;;;;;;4916152;29;20136;-70
2022/10/18 03:45:45;;;;;;;33.08;18.42;;;;;;;;;;4915816;29;20040;-70
2022/10/18 03:48:13;;;;;;;32.78;18.05;;;;;;;;;;4915950;29;20125;-70
2022/10/18 03:50:41;;;;;;;38.03;18.45;;;;;;;;;;4914218;29;20044;-70
2022/10/18 03:53:09;;;;;;;31.25;18.13;;;;;;;;;;4915759;29;20048;-70
2022/10/18 03:55:37;;;;;;;33.53;18.25;;;;;;;;;;4915892;29;20072;-70
2022/10/18 03:58:04;;;;;;;36.88;18.55;;;;;;;;;;4914798;29;20407;-70
2022/10/18 04:00:32;;;;;;;33.75;17.40;;;;;;;;;;4916049;29;20040;-71
2022/10/18 04:02:59;;;;;;;34.72;17.30;;;;;;;;;;4915510;29;20506;-70
2022/10/18 04:05:29;;;;;;;29.52;16.38;;;;;;;;;;4918759;29;20104;-70
2022/10/18 04:07:57;;;;;;;31.42;17.50;;;;;;;;;;4918940;29;20513;-69
2022/10/18 04:10:24;;;;;;;29.58;16.83;;;;;;;;;;4919388;29;20040;-70
2022/10/18 04:12:52;;;;;;;31.98;17.90;;;;;;;;;;4918970;29;20052;-71
2022/10/18 04:15:20;;;;;;;31.00;16.17;;;;;;;;;;4917763;29;20048;-71
2022/10/18 04:17:47;;;;;;;30.38;16.60;;;;;;;;;;4918926;29;20063;-70
2022/10/18 04:20:15;;;;;;;31.63;16.25;;;;;;;;;;4918918;29;20052;-70
2022/10/18 04:22:42;;;;;;;28.63;16.02;;;;;;;;;;4919077;29;20491;-71
2022/10/18 04:25:10;;;;;;;35.97;17.17;;;;;;;;;;4923691;29;21629;-70
2022/10/18 04:27:37;;;;;;;32.15;18.13;;;;;;;;;;4930696;29;20134;-69
2022/10/18 04:30:05;;;;;;;34.03;17.48;;;;;;;;;;4937897;29;20051;-70
2022/10/18 04:32:34;;;;;;;30.95;17.33;;;;;;;;;;4937840;29;20040;-70
2022/10/18 04:35:02;;;;;;;33.10;15.60;;;;;;;;;;4937867;29;20631;-70
2022/10/18 04:37:29;;;;;;;39.35;17.35;;;;;;;;;;4937810;29;20050;-70
2022/10/18 04:39:57;;;;;;;31.10;15.57;;;;;;;;;;4937558;29;20046;-70
2022/10/18 04:42:25;;;;;;;36.30;16.42;;;;;;;;;;4937630;29;20040;-70
2022/10/18 04:44:52;;;;;;;36.42;16.83;;;;;;;;;;4936590;29;20046;-70
2022/10/18 04:47:20;;;;;;;41.90;16.00;;;;;;;;;;4937748;29;20044;-70
2022/10/18 04:49:47;;;;;;;44.42;17.17;;;;;;;;;;4937502;29;20052;-69
2022/10/18 04:52:15;;;;;;;40.58;16.35;;;;;;;;;;4937489;29;20040;-70
2022/10/18 04:54:42;;;;;;;38.45;18.15;;;;;;;;;;4937494;29;20036;-70
2022/10/18 04:57:09;;;;;;;40.85;17.67;;;;;;;;;;4937538;29;20103;-70
2022/10/18 04:59:37;;;;;;;39.03;17.80;;;;;;;;;;4937535;29;20047;-70
2022/10/18 05:02:04;;;;;;;44.05;18.83;;;;;;;;;;4937392;29;20577;-70
2022/10/18 05:04:32;;;;;;;38.85;17.58;;;;;;;;;;4937296;29;20044;-70
2022/10/18 05:06:59;;;;;;;37.35;18.42;;;;;;;;;;4937408;29;20103;-71
2022/10/18 05:09:27;;;;;;;40.13;18.58;;;;;;;;;;4937314;29;20035;-70
2022/10/18 05:11:54;;;;;;;49.20;20.75;;;;;;;;;;4937563;29;20461;-70
2022/10/18 05:14:22;;;;;;;50.72;22.02;;;;;;;;;;4937156;29;20543;-71
2022/10/18 05:16:49;;;;;;;42.85;22.23;;;;;;;;;;4937253;29;20561;-71
2022/10/18 05:19:17;;;;;;;41.25;22.08;;;;;;;;;;4936970;29;20052;-70
2022/10/18 05:21:44;;;;;;;50.03;22.52;;;;;;;;;;4935939;29;20071;-70
2022/10/18 05:24:12;;;;;;;45.08;21.42;;;;;;;;;;4937034;29;20035;-70
2022/10/18 05:26:39;;;;;;;49.13;24.08;;;;;;;;;;4936945;29;20052;-70
2022/10/18 05:29:07;;;;;;;45.10;23.40;;;;;;;;;;4936824;29;20490;-70
2022/10/18 05:31:34;;;;;;;50.08;23.10;;;;;;;;;;4936948;29;20103;-71
2022/10/18 05:34:02;;;;;;;45.03;22.67;;;;;;;;;;4936841;29;20051;-70
2022/10/18 05:36:30;;;;;;;48.60;23.20;;;;;;;;;;4936824;29;20193;-70
2022/10/18 05:38:57;;;;;;;43.78;22.10;;;;;;;;;;4936698;29;20486;-71
2022/10/18 05:41:30;;;;;;;48.22;23.60;;;;;;;;;;4936555;29;20106;-71
2022/10/18 05:43:58;;;;;;;58.40;28.10;;;;;;;;;;4936526;29;20580;-71
2022/10/18 05:46:25;;;;;;;74.85;29.98;;;;;;;;;;4936822;29;20047;-71
2022/10/18 05:48:53;;;;;;;63.42;28.33;;;;;;;;;;4936535;29;20048;-70
2022/10/18 05:51:20;;;;;;;61.53;28.90;;;;;;;;;;4935343;29;20036;-70
2022/10/18 05:53:48;;;;;;;62.50;29.80;;;;;;;;;;4935173;29;20509;-70
2022/10/18 05:56:15;;;;;;;67.38;30.85;;;;;;;;;;4936439;29;20098;-70
2022/10/18 05:58:43;;;;;;;57.28;31.45;;;;;;;;;;4936368;29;20051;-69
2022/10/18 06:01:10;;;;;;;61.88;30.75;;;;;;;;;;4936314;29;20075;-69
2022/10/18 06:03:38;;;;;;;62.15;29.73;;;;;;;;;;4936320;29;20047;-69
2022/10/18 06:06:06;;;;;;;60.35;30.00;;;;;;;;;;4936424;29;20039;-69
2022/10/18 06:08:34;;;;;;;60.10;28.88;;;;;;;;;;4936394;29;20048;-69
2022/10/18 06:11:06;;;;;;;48.28;27.70;;;;;;;;;;4936146;29;20071;-69
2022/10/18 06:13:33;;;;;;;47.13;25.25;;;;;;;;;;4935959;29;20512;-70
2022/10/18 06:16:01;;;;;;;50.65;23.42;;;;;;;;;;4936147;29;20096;-70
2022/10/18 06:18:28;;;;;;;39.28;20.98;;;;;;;;;;4936082;29;20066;-70
2022/10/18 06:20:57;;;;;;;35.92;20.52;;;;;;;;;;4936030;29;20130;-70
2022/10/18 06:23:26;;;;;;;43.20;23.48;;;;;;;;;;4936193;29;20044;-71
2022/10/18 06:25:57;;;;;;;53.63;28.17;;;;;;;;;;4934928;29;20051;-71
2022/10/18 06:28:25;;;;;;;59.63;30.98;;;;;;;;;;4935504;29;20058;-71
2022/10/18 06:30:52;;;;;;;62.90;31.38;;;;;;;;;;4935873;29;20486;-71
2022/10/18 06:33:20;;;;;;;41.83;26.33;;;;;;;;;;4935808;29;20115;-69
2022/10/18 06:35:54;;;;;;;58.97;29.58;;;;;;;;;;4935588;29;20044;-70
2022/10/18 06:38:22;;;;;;;52.17;28.27;;;;;;;;;;4935734;29;20052;-70
2022/10/18 06:40:49;;;;;;;28.77;19.27;;;;;;;;;;4934235;29;20547;-70
2022/10/18 06:43:16;;;;;;;25.63;17.65;;;;;;;;;;4935557;29;20050;-72
2022/10/18 06:45:48;;;;;;;55.80;19.42;;;;;;;;;;4935696;29;20046;-70
2022/10/18 06:48:15;;;;;;;29.27;19.00;;;;;;;;;;4935954;29;20047;-70
2022/10/18 06:50:50;;;;;;;30.58;20.08;;;;;;;;;;4935566;29;20402;-70
2022/10/18 06:53:17;;;;;;;33.30;20.20;;;;;;;;;;4935531;29;20040;-69
2022/10/18 06:55:45;;;;;;;38.20;21.83;;;;;;;;;;4935691;29;20110;-70
2022/10/18 06:58:13;;;;;;;34.58;20.10;;;;;;;;;;4935401;29;20039;-69
2022/10/18 07:00:40;;;;;;;40.67;21.40;;;;;;;;;;4935537;29;20044;-70
2022/10/18 07:03:08;;;;;;;40.25;21.52;;;;;;;;;;4935424;29;20054;-71
2022/10/18 07:05:36;;;;;;;39.63;20.70;;;;;;;;;;4935362;29;20043;-69
2022/10/18 07:08:03;;;;;;;37.38;21.65;;;;;;;;;;4935347;29;20490;-69
2022/10/18 07:10:31;;;;;;;38.08;20.90;;;;;;;;;;4935446;29;20421;-69
2022/10/18 07:12:58;;;;;;;41.60;25.35;;;;;;;;;;4935372;29;20043;-70
2022/10/18 07:15:46;;;;;;;53.83;28.92;;;;;;;;;;4935235;29;20095;-69
2022/10/18 07:18:13;;;;;;;51.83;32.50;;;;;;;;;;4935138;29;20048;-69
2022/10/18 07:20:41;;;;;;;50.55;31.45;;;;;;;;;;4934941;29;20056;-71
2022/10/18 07:23:10;;;;;;;66.03;35.13;;;;;;;;;;4935059;29;20043;-70
2022/10/18 07:25:37;;;;;;;59.15;35.88;;;;;;;;;;4935521;29;20075;-71
2022/10/18 07:28:05;;;;;;;64.63;36.38;;;;;;;;;;4935099;29;20107;-69
2022/10/18 07:30:33;;;;;;;53.00;28.92;;;;;;;;;;4935411;29;20087;-71
2022/10/18 07:33:00;;;;;;;44.45;25.60;;;;;;;;;;4935133;29;20043;-71
2022/10/18 07:35:28;;;;;;;41.47;22.95;;;;;;;;;;4935114;29;20498;-71
2022/10/18 07:37:55;;;;;;;39.97;23.00;;;;;;;;;;4935290;29;20417;-71
2022/10/18 07:40:23;;;;;;;39.53;22.30;;;;;;;;;;4937173;29;20040;-71
2022/10/18 07:42:50;;;;;;;38.75;22.17;;;;;;;;;;4937596;29;20066;-71
2022/10/18 07:45:18;;;;;;;68.80;23.35;;;;;;;;;;4938607;29;20102;-71
2022/10/18 07:47:45;;;;;;;44.22;22.58;;;;;;;;;;4938619;29;20059;-71
2022/10/18 07:50:12;;;;;;;40.00;21.98;;;;;;;;;;4938531;29;20043;-71
2022/10/18 07:52:40;;;;;;;37.58;21.92;;;;;;;;;;4938554;29;20040;-71
2022/10/18 07:55:07;;;;;;;37.10;20.83;;;;;;;;;;4938662;29;20059;-71
2022/10/18 07:57:35;;;;;;;37.08;20.98;;;;;;;;;;4938615;29;20047;-71
2022/10/18 08:00:03;;;;;;;43.22;22.67;;;;;;;;;;4938498;29;20067;-71
2022/10/18 08:02:37;;;;;;;41.22;21.98;;;;;;;;;;4938442;29;20126;-71
2022/10/18 08:05:05;;;;;;;38.50;21.00;;;;;;;;;;4938496;29;20055;-71
2022/10/18 08:07:32;;;;;;;40.90;21.58;;;;;;;;;;4938382;29;20122;-72
2022/10/18 08:10:01;;;;;;;40.65;21.13;;;;;;;;;;4938271;29;20075;-71
2022/10/18 08:12:28;;;;;;;37.65;22.45;;;;;;;;;;4938388;29;20043;-71
2022/10/18 08:14:55;;;;;;;36.88;21.17;;;;;;;;;;4937197;29;20075;-71
2022/10/18 08:17:23;;;;;;;111.78;24.10;;;;;;;;;;4938238;29;20052;-71
2022/10/18 08:19:50;;;;;;;110.00;23.95;;;;;;;;;;4938050;29;20107;-71
2022/10/18 08:22:38;;;;;;;32.97;19.50;;;;;;;;;;4938200;29;20524;-70
2022/10/18 08:25:06;;;;;;;32.38;15.23;;;;;;;;;;4938090;29;20044;-71
2022/10/18 08:27:33;;;;;;;35.42;18.65;;;;;;;;;;4937947;29;20044;-71
2022/10/18 08:30:01;;;;;;;32.95;16.10;;;;;;;;;;4937990;29;20504;-70
2022/10/18 08:32:28;;;;;;;27.25;15.07;;;;;;;;;;4937847;29;20031;-71
2022/10/18 08:34:57;;;;;;;22.80;13.63;;;;;;;;;;4938154;29;20126;-70
2022/10/18 08:37:24;;;;;;;32.58;15.05;;;;;;;;;;4937915;29;20087;-71
2022/10/18 08:39:51;;;;;;;28.75;15.50;;;;;;;;;;4937962;29;20063;-71
2022/10/18 08:42:25;;;;;;;25.67;16.45;;;;;;;;;;4937744;29;20111;-71
2022/10/18 08:44:53;;;;;;;25.27;13.77;;;;;;;;;;4937723;29;20043;-70
2022/10/18 08:47:22;;;;;;;30.58;15.02;;;;;;;;;;4937672;29;20039;-71
2022/10/18 08:49:51;;;;;;;23.02;15.25;;;;;;;;;;4936113;29;20040;-70
2022/10/18 08:52:37;;;;;;;30.75;14.68;;;;;;;;;;4937474;29;20043;-72
2022/10/18 08:55:10;;;;;;;108.82;18.52;;;;;;;;;;4936369;29;20422;-70
2022/10/18 08:57:37;;;;;;;56.00;16.98;;;;;;;;;;4937445;29;20443;-70
2022/10/18 09:00:14;;;;;;;26.20;12.13;;;;;;;;;;4937479;29;20050;-71
2022/10/18 09:02:49;;;;;;;25.35;12.18;;;;;;;;;;4936321;29;20036;-70
2022/10/18 09:05:17;;;;;;;18.33;11.65;;;;;;;;;;4937293;29;20122;-71
2022/10/18 09:08:08;;;;;;;16.58;10.23;;;;;;;;;;4937637;29;20069;-70
2022/10/18 09:10:38;;;;;;;19.00;11.73;;;;;;;;;;4937327;29;20120;-71
2022/10/18 09:13:17;;;;;;;52.03;12.63;;;;;;;;;;4937295;29;20043;-71
2022/10/18 09:15:59;;;;;;;26.52;7.05;;;;;;;;;;4936112;29;20115;-71
2022/10/18 09:18:45;;;;;;;17.27;6.65;;;;;;;;;;4937138;29;20043;-70
2022/10/18 09:21:28;;;;;;;9.80;4.80;;;;;;;;;;4937188;29;20055;-71
2022/10/18 09:24:01;;;;;;;16.52;7.38;;;;;;;;;;4936907;29;20054;-70
2022/10/18 09:26:31;;;;;;;26.80;7.90;;;;;;;;;;4937232;29;20044;-71
2022/10/18 09:29:02;;;;;;;11.70;5.85;;;;;;;;;;4936588;29;20060;-70
2022/10/18 09:31:29;;;;;;;14.18;7.03;;;;;;;;;;4936786;29;20039;-71
2022/10/18 09:34:29;;;;;;;18.58;7.80;;;;;;;;;;4935491;29;20051;-71
2022/10/18 09:36:57;;;;;;;14.13;6.43;;;;;;;;;;4904538;29;20082;-70
2022/10/18 09:39:28;;;;;;;12.38;6.05;;;;;;;;;;4936579;29;20363;-71
2022/10/18 09:41:57;;;;;;;13.23;7.43;;;;;;;;;;4936687;29;20487;-71
2022/10/18 09:44:27;;;;;;;12.07;6.70;;;;;;;;;;4936532;29;20439;-71
2022/10/18 09:47:02;;;;;;;8.93;4.95;;;;;;;;;;4936858;29;20664;-71
2022/10/18 09:49:32;;;;;;;11.30;6.93;;;;;;;;;;4936542;29;20095;-70
2022/10/18 09:52:01;;;;;;;10.90;6.00;;;;;;;;;;4936483;29;20047;-71
2022/10/18 09:54:31;;;;;;;9.05;5.03;;;;;;;;;;4936406;29;20043;-70
2022/10/18 09:57:09;;;;;;;10.23;5.13;;;;;;;;;;4936450;29;20044;-71
2022/10/18 09:59:41;;;;;;;9.68;4.40;;;;;;;;;;4936324;29;20044;-71
2022/10/18 10:02:12;;;;;;;15.25;4.90;;;;;;;;;;4935603;29;20039;-71
2022/10/18 10:04:40;;;;;;;8.20;4.53;;;;;;;;;;4936261;29;20127;-71
2022/10/18 10:07:34;;;;;;;10.80;4.75;;;;;;;;;;4936137;29;20043;-71
2022/10/18 10:10:10;;;;;;;6.32;3.75;;;;;;;;;;4933937;29;20056;-71
2022/10/18 10:12:39;;;;;;;8.93;4.10;;;;;;;;;;4936140;29;20047;-71
2022/10/18 10:15:26;;;;;;;14.50;8.13;;;;;;;;;;4935164;29;20039;-70
2022/10/18 10:18:03;;;;;;;14.13;4.78;;;;;;;;;;4936150;29;20040;-70
2022/10/18 10:20:30;;;;;;;9.77;4.00;;;;;;;;;;4936076;29;20122;-70
2022/10/18 10:23:05;;;;;;;9.02;4.15;;;;;;;;;;4935966;29;20427;-70
2022/10/18 10:25:34;;;;;;;9.70;4.28;;;;;;;;;;4935959;29;20047;-70
2022/10/18 10:28:03;;;;;;;9.20;3.47;;;;;;;;;;4935846;29;20043;-70
2022/10/18 10:30:32;;;;;;;8.60;3.60;;;;;;;;;;4935806;29;20194;-70
2022/10/18 10:33:00;;;;;;;9.52;3.50;;;;;;;;;;4935667;29;20048;-71
2022/10/18 10:35:29;;;;;;;6.88;3.72;;;;;;;;;;4935597;29;20094;-70
2022/10/18 10:38:24;;;;;;;5.75;3.20;;;;;;;;;;4935747;29;20059;-70
2022/10/18 10:40:52;;;;;;;5.40;2.90;;;;;;;;;;4935529;29;20455;-70
2022/10/18 10:43:26;;;;;;;6.68;3.33;;;;;;;;;;4935635;29;20063;-71
2022/10/18 10:46:11;;;;;;;8.40;3.70;;;;;;;;;;4935672;29;20051;-70
2022/10/18 10:48:46;;;;;;;9.02;3.85;;;;;;;;;;4935621;29;20063;-70
2022/10/18 10:51:15;;;;;;;7.30;3.70;;;;;;;;;;4935770;29;20040;-70
2022/10/18 10:53:45;;;;;;;7.68;3.63;;;;;;;;;;4935613;29;20566;-70
2022/10/18 10:56:17;;;;;;;5.90;3.50;;;;;;;;;;4935552;29;20044;-71
2022/10/18 10:58:45;;;;;;;7.80;3.58;;;;;;;;;;4935461;29;20047;-70
2022/10/18 11:01:23;;;;;;;8.38;3.70;;;;;;;;;;4935339;29;20483;-70
2022/10/18 11:03:52;;;;;;;5.60;3.72;;;;;;;;;;4935456;29;20553;-71
2022/10/18 11:06:46;;;;;;;11.30;3.97;;;;;;;;;;4935616;29;20052;-71
2022/10/18 11:09:19;;;;;;;11.90;4.20;;;;;;;;;;4931229;29;20069;-70
2022/10/18 11:11:52;;;;;;;7.47;5.15;;;;;;;;;;4934113;29;20056;-70
2022/10/18 11:14:28;;;;;;;8.30;3.67;;;;;;;;;;4940973;29;20085;-70
2022/10/18 11:17:05;;;;;;;10.00;4.28;;;;;;;;;;4941775;29;20043;-70
2022/10/18 11:20:00;;;;;;;6.40;3.40;;;;;;;;;;4941722;29;20095;-70
2022/10/18 11:22:29;;;;;;;8.85;4.43;;;;;;;;;;4940554;29;20048;-70
2022/10/18 11:24:57;;;;;;;8.52;5.00;;;;;;;;;;4941738;29;20051;-70
2022/10/18 11:27:31;;;;;;;7.38;3.70;;;;;;;;;;4941882;29;20050;-70
2022/10/18 11:30:14;;;;;;;7.20;3.83;;;;;;;;;;4941646;29;20177;-70
2022/10/18 11:32:47;;;;;;;8.70;4.38;;;;;;;;;;4941534;29;20040;-70
2022/10/18 11:35:23;;;;;;;7.85;4.10;;;;;;;;;;4941517;29;20099;-70
2022/10/18 11:37:50;;;;;;;8.98;3.97;;;;;;;;;;4941414;29;20036;-70
2022/10/18 11:40:37;;;;;;;7.35;4.60;;;;;;;;;;4941627;29;20402;-70
2022/10/18 11:43:07;;;;;;;5.82;3.83;;;;;;;;;;4941330;29;20351;-70
2022/10/18 11:45:53;;;;;;;8.20;3.72;;;;;;;;;;4941345;29;20036;-70
2022/10/18 11:48:26;;;;;;;7.65;3.53;;;;;;;;;;4941518;29;20441;-71
2022/10/18 11:51:02;;;;;;;7.32;4.47;;;;;;;;;;4941397;29;20046;-70
2022/10/18 11:53:32;;;;;;;9.20;3.70;;;;;;;;;;4940117;29;20458;-70
2022/10/18 11:56:00;;;;;;;6.35;3.78;;;;;;;;;;4940079;29;20417;-71
2022/10/18 11:58:33;;;;;;;7.63;3.47;;;;;;;;;;4941490;29;20059;-70
2022/10/18 12:01:06;;;;;;;11.25;5.20;;;;;;;;;;4941130;29;20051;-70
2022/10/18 12:03:48;;;;;;;9.27;3.97;;;;;;;;;;4941542;29;20044;-70
2022/10/18 12:06:19;;;;;;;6.47;3.40;;;;;;;;;;4940106;29;20079;-70
2022/10/18 12:08:52;;;;;;;7.53;3.83;;;;;;;;;;4941203;29;20044;-70
2022/10/18 12:11:31;;;;;;;6.53;4.00;;;;;;;;;;4941515;29;20047;-70
2022/10/18 12:14:00;;;;;;;17.77;9.05;;;;;;;;;;4941132;29;20055;-70
2022/10/18 12:16:30;;;;;;;9.65;5.20;;;;;;;;;;4941185;29;20054;-71
2022/10/18 12:19:19;;;;;;;4.57;2.92;;;;;;;;;;4941254;29;20048;-70
2022/10/18 12:21:53;;;;;;;8.80;4.03;;;;;;;;;;4940976;29;20044;-70
2022/10/18 12:24:22;;;;;;;13.90;4.88;;;;;;;;;;4939567;29;20524;-70
2022/10/18 12:26:51;;;;;;;7.07;3.33;;;;;;;;;;4938121;29;20044;-70
2022/10/18 12:29:29;;;;;;;5.93;3.13;;;;;;;;;;4937860;29;20122;-70
2022/10/18 12:31:58;;;;;;;5.72;3.08;;;;;;;;;;4936771;29;20498;-70
2022/10/18 12:34:29;;;;;;;5.53;2.97;;;;;;;;;;4938065;29;20047;-70
2022/10/18 12:37:16;;;;;;;12.43;3.60;;;;;;;;;;4936685;29;20047;-71
2022/10/18 12:39:51;;;;;;;5.35;3.30;;;;;;;;;;4937837;29;20067;-70
2022/10/18 12:42:56;;;;;;;8.27;3.25;;;;;;;;;;4937826;29;20123;-70
2022/10/18 12:45:31;;;;;;;5.10;3.22;;;;;;;;;;4937714;29;20062;-71
2022/10/18 12:48:00;;;;;;;5.05;2.97;;;;;;;;;;4940129;29;20039;-71
2022/10/18 12:50:27;;;;;;;7.15;3.30;;;;;;;;;;4938574;29;20040;-70
2022/10/18 12:53:06;;;;;;;7.20;3.80;;;;;;;;;;4937161;29;20051;-71
2022/10/18 12:55:35;;;;;;;10.50;3.33;;;;;;;;;;4936981;29;20040;-69
2022/10/18 12:58:21;;;;;;;7.80;3.28;;;;;;;;;;4937362;29;20119;-70
2022/10/18 13:00:48;;;;;;;6.93;3.67;;;;;;;;;;4933160;29;20396;-70
2022/10/18 13:03:16;;;;;;;5.10;2.85;;;;;;;;;;4920680;29;20067;-71
2022/10/18 13:05:47;;;;;;;10.48;3.38;;;;;;;;;;4920510;29;20044;-71
2022/10/18 13:08:40;;;;;;;6.85;4.13;;;;;;;;;;4918119;29;20546;-71
2022/10/18 13:11:08;;;;;;;9.50;6.60;;;;;;;;;;4916521;29;20048;-71
2022/10/18 13:13:45;;;;;;;6.80;4.45;;;;;;;;;;4916729;29;20048;-72
2022/10/18 13:16:27;;;;;;;5.40;2.72;;;;;;;;;;4918228;29;20067;-71
2022/10/18 13:18:58;;;;;;;8.73;3.17;;;;;;;;;;4918417;29;20453;-71
2022/10/18 13:21:28;;;;;;;8.48;3.63;;;;;;;;;;4918026;29;20131;-72
2022/10/18 13:24:15;;;;;;;8.75;3.30;;;;;;;;;;4916931;29;20123;-72
2022/10/18 13:26:42;;;;;;;9.80;3.58;;;;;;;;;;4918093;29;20047;-71
2022/10/18 13:29:37;;;;;;;6.97;3.45;;;;;;;;;;4917831;29;20064;-71
2022/10/18 13:32:04;;;;;;;8.52;3.92;;;;;;;;;;4916645;29;20058;-72
2022/10/18 13:34:34;;;;;;;12.88;6.35;;;;;;;;;;4917751;29;20114;-71
2022/10/18 13:37:03;;;;;;;10.40;5.05;;;;;;;;;;4916745;29;20040;-72
2022/10/18 13:39:31;;;;;;;9.70;3.38;;;;;;;;;;4931996;29;20446;-72
2022/10/18 13:41:59;;;;;;;5.00;2.92;;;;;;;;;;4916507;29;20127;-71
2022/10/18 13:44:30;;;;;;;5.47;3.13;;;;;;;;;;4917652;29;20032;-72
2022/10/18 13:46:58;;;;;;;11.50;4.13;;;;;;;;;;4917027;29;20044;-72
2022/10/18 13:49:43;;;;;;;6.93;3.20;;;;;;;;;;4917577;29;20047;-74
2022/10/18 13:52:29;;;;;;;6.70;3.53;;;;;;;;;;4917783;29;20387;-73
2022/10/18 13:55:08;;;;;;;5.80;3.10;;;;;;;;;;4917599;29;20395;-73
2022/10/18 13:57:45;;;;;;;7.07;3.20;;;;;;;;;;4917366;29;20048;-72
2022/10/18 14:00:12;;;;;;;6.10;4.10;;;;;;;;;;4917384;29;20714;-72
2022/10/18 14:02:47;;;;;;;9.18;4.90;;;;;;;;;;4917567;29;20505;-73
2022/10/18 14:05:44;;;;;;;10.35;4.82;;;;;;;;;;4917130;29;20044;-71
2022/10/18 14:08:15;;;;;;;10.05;5.15;;;;;;;;;;4917074;29;20435;-72
2022/10/18 14:10:50;;;;;;;7.70;2.80;;;;;;;;;;4917195;29;20127;-73
2022/10/18 14:13:42;;;;;;;7.40;3.25;;;;;;;;;;4917102;29;20671;-72
2022/10/18 14:16:29;;;;;;;7.55;4.30;;;;;;;;;;4917007;29;20044;-71
2022/10/18 14:19:01;;;;;;;10.88;3.88;;;;;;;;;;4917186;29;20068;-72
2022/10/18 14:21:32;;;;;;;6.32;3.78;;;;;;;;;;4916943;29;20040;-71
2022/10/18 14:23:59;;;;;;;11.80;3.75;;;;;;;;;;4916488;29;20048;-72
2022/10/18 14:26:28;;;;;;;5.25;3.22;;;;;;;;;;4915424;29;20092;-71
2022/10/18 14:29:03;;;;;;;7.97;3.33;;;;;;;;;;4916765;29;20514;-71
2022/10/18 14:31:31;;;;;;;7.40;3.83;;;;;;;;;;4916597;29;20071;-71
2022/10/18 14:33:59;;;;;;;8.18;3.60;;;;;;;;;;4916860;29;20040;-71
2022/10/18 14:36:29;;;;;;;7.30;3.88;;;;;;;;;;4916883;29;20051;-71
2022/10/18 14:38:58;;;;;;;11.27;4.47;;;;;;;;;;4917231;29;20044;-72
2022/10/18 14:41:32;;;;;;;9.40;4.30;;;;;;;;;;4916921;29;20100;-72
2022/10/18 14:44:18;;;;;;;9.15;3.90;;;;;;;;;;4915841;29;20055;-72
2022/10/18 14:46:50;;;;;;;7.80;3.88;;;;;;;;;;4915144;29;20071;-72
2022/10/18 14:49:19;;;;;;;12.52;4.63;;;;;;;;;;4915038;29;20411;-71